Terminal Aerodrome Forecast
Issued by NWS Charleston, WV

Home | Current Version | Previous Version | Text Only | Print | Product List | Glossary On
Versions: 1 2 3 4 5 6 7 8 9 10 11 12 13 14 15 16 17 18 19 20 21 22 23 24 25
000
FTUS41 KRLX 260558
TAFHTS
TAF
KHTS 260558Z 2606/2706 00000KT P6SM FEW200
     FM260800 00000KT 2SM BR BKN060
     FM260900 00000KT 1SM BR BKN001
     FM261300 00000KT 3SM BR BKN035
     FM261400 00000KT P6SM BKN040
     FM261900 28004KT P6SM VCTS BKN040CB
     FM270500 00000KT 6SM BR SCT060=

USA.gov is the U.S. government's official web portal to all federal, state and local government web resources and services.